Victoria, Minnesota
Current Conditions -  °F | °C
As of 7:53 AM on Thursday 27 Nov 2014 (Local Time) from KFCM Reporting Station
Clear Clear  
Wind Chill: -12°   Ceiling: Unl
Heat Index: -2°   Visibility: 10mi
Dew Point: -7°   Wind: 5mph
Humidity: 79%   Direction: 320°NW
Pressure: 30.49"   Gusts: NA
Location:  44.86°N, 93.66°W
Report Text: KFCM 271353Z 32004KT 10SM CLR M19/M22 A3049 RMK AO2 SLP347 T11891217
Loading
Personal Weather Stations






























Interactive Weather Map New forecast layout! Learn more

10-Day Weather Forecast

Advertisements
Track Severe Weather on mobile